Time;durP1;ratioP1;P1;durP2;ratioP2;P2;SDS_P1;SDS_P2;PMS_P1;PMS_P2;Temp;Humidity;BMP_temperature;BMP_pressure;BME280_temperature;BME280_humidity;BME280_pressure;Samples;Min_cycle;Max_cycle;Signal;HPM_P1;HPM_P2
2022/07/27 00:00:03;;;;;;;5.25;1.52;;;;;;;13.94;73.73;101961.72;4997917;28;20125;-76
2022/07/27 00:02:28;;;;;;;5.75;1.45;;;;;;;13.89;73.90;101947.38;4986654;28;20026;-76
2022/07/27 00:04:54;;;;;;;6.95;1.58;;;;;;;13.85;74.09;101946.75;4987299;28;20508;-78
2022/07/27 00:07:19;;;;;;;5.18;1.58;;;;;;;13.86;74.17;101952.81;4986812;28;20437;-77
2022/07/27 00:09:44;;;;;;;3.30;1.48;;;;;;;13.75;75.11;101957.06;4989692;28;20030;-77
2022/07/27 00:12:10;;;;;;;5.25;1.50;;;;;;;13.73;74.60;101942.50;4989249;28;20206;-77
2022/07/27 00:14:35;;;;;;;5.80;1.63;;;;;;;13.72;74.90;101948.66;4982942;28;20142;-76
2022/07/27 00:17:00;;;;;;;7.05;1.70;;;;;;;13.62;75.21;101943.31;4988225;28;20033;-77
2022/07/27 00:19:26;;;;;;;6.43;1.85;;;;;;;13.71;74.92;101950.44;4988855;28;20493;-76
2022/07/27 00:21:51;;;;;;;5.57;2.00;;;;;;;13.65;75.26;101945.72;4987525;28;20041;-77
2022/07/27 00:24:16;;;;;;;7.80;1.83;;;;;;;13.66;75.60;101942.16;4989188;28;20029;-77
2022/07/27 00:26:42;;;;;;;4.93;1.92;;;;;;;13.66;75.24;101931.72;4988477;28;20501;-77
2022/07/27 00:29:07;;;;;;;7.50;2.00;;;;;;;13.58;75.91;101939.28;4988837;28;20056;-76
2022/07/27 00:31:33;;;;;;;5.15;1.83;;;;;;;13.69;75.22;101941.91;4987216;28;20497;-76
2022/07/27 00:33:58;;;;;;;7.40;1.63;;;;;;;13.60;75.97;101942.63;4988521;28;20030;-76
2022/07/27 00:36:23;;;;;;;7.18;1.83;;;;;;;13.53;76.15;101941.41;4988641;28;20109;-76
2022/07/27 00:38:49;;;;;;;6.05;1.90;;;;;;;13.61;75.48;101939.06;4986631;28;20661;-76
2022/07/27 00:41:14;;;;;;;8.95;1.98;;;;;;;13.53;75.49;101920.56;4988529;28;20034;-76
2022/07/27 00:43:50;;;;;;;4.85;1.50;;;;;;;13.61;75.64;101936.47;4988980;28;20072;-77
2022/07/27 00:46:16;;;;;;;5.75;1.73;;;;;;;13.59;75.48;101935.75;4978846;28;20034;-76
2022/07/27 00:48:41;;;;;;;8.30;1.90;;;;;;;13.51;76.04;101932.88;4988868;28;20030;-77
2022/07/27 00:51:07;;;;;;;5.75;1.50;;;;;;;13.50;75.48;101928.63;4988314;28;20034;-75
2022/07/27 00:53:33;;;;;;;7.47;1.92;;;;;;;13.47;76.04;101941.88;4989103;28;20478;-75
2022/07/27 00:55:58;;;;;;;6.72;1.88;;;;;;;13.47;75.42;101936.66;4987018;28;20497;-76
2022/07/27 00:58:25;;;;;;;4.97;1.77;;;;;;;13.37;76.30;101941.75;4986025;28;20034;-76
2022/07/27 01:00:50;;;;;;;4.63;1.50;;;;;;;13.40;75.90;101940.69;4984721;28;20471;-76
2022/07/27 01:03:16;;;;;;;5.05;1.90;;;;;;;13.47;75.95;101936.66;4980618;28;20087;-77
2022/07/27 01:05:41;;;;;;;4.50;1.60;;;;;;;13.43;75.86;101936.09;4988237;28;20032;-75
2022/07/27 01:08:10;;;;;;;6.15;1.70;;;;;;;13.44;76.62;101931.69;4988499;28;20026;-76
2022/07/27 01:10:36;;;;;;;7.57;1.83;;;;;;;13.42;76.42;101944.84;4983238;28;20038;-76
2022/07/27 01:13:02;;;;;;;6.68;1.90;;;;;;;13.51;75.74;101943.31;4988103;28;20034;-76
2022/07/27 01:15:28;;;;;;;5.82;1.70;;;;;;;13.46;76.23;101932.41;4982209;28;20434;-76
2022/07/27 01:17:53;;;;;;;6.72;1.85;;;;;;;13.38;76.54;101926.94;4986833;28;20031;-75
2022/07/27 01:20:19;;;;;;;8.50;1.90;;;;;;;13.40;76.50;101941.50;4987783;28;20018;-76
2022/07/27 01:22:44;;;;;;;5.85;1.60;;;;;;;13.28;77.40;101938.06;4987541;28;20148;-76
2022/07/27 01:25:10;;;;;;;5.63;1.70;;;;;;;13.41;77.10;101939.72;4984874;28;20014;-76
2022/07/27 01:27:36;;;;;;;8.25;2.05;;;;;;;13.39;77.29;101939.03;4988126;28;20046;-77
2022/07/27 01:30:01;;;;;;;6.72;2.10;;;;;;;13.40;78.05;101951.09;4981511;28;20033;-76
2022/07/27 01:32:26;;;;;;;6.80;1.77;;;;;;;13.51;77.15;101943.31;4988114;28;20038;-76
2022/07/27 01:34:52;;;;;;;4.93;1.83;;;;;;;13.50;76.86;101942.47;4984490;28;20085;-76
2022/07/27 01:37:17;;;;;;;6.40;1.77;;;;;;;13.44;77.16;101948.16;4985189;28;20299;-77
2022/07/27 01:39:43;;;;;;;7.65;2.08;;;;;;;13.43;77.69;101945.69;4987066;28;20497;-77
2022/07/27 01:42:08;;;;;;;7.78;1.98;;;;;;;13.42;77.09;101947.47;4984324;28;20038;-76
2022/07/27 01:44:35;;;;;;;6.00;1.98;;;;;;;13.38;77.08;101937.38;4982934;28;20065;-77
2022/07/27 01:47:00;;;;;;;7.45;2.10;;;;;;;13.21;78.03;101929.06;4985494;28;20485;-77
2022/07/27 01:49:25;;;;;;;6.40;2.10;;;;;;;13.31;77.03;101930.97;4989008;28;20048;-77
2022/07/27 01:51:51;;;;;;;5.47;2.28;;;;;;;13.23;77.61;101934.13;4989631;28;20474;-76
2022/07/27 01:54:16;;;;;;;6.30;2.08;;;;;;;13.23;77.17;101929.75;4986845;28;20545;-77
2022/07/27 01:56:42;;;;;;;6.60;2.58;;;;;;;13.18;77.72;101926.63;4976280;28;20034;-77
2022/07/27 01:59:07;;;;;;;6.75;2.40;;;;;;;13.10;78.33;101935.97;4979954;28;20482;-77
2022/07/27 02:01:33;;;;;;;6.43;2.00;;;;;;;13.12;78.18;101927.09;4983272;28;20467;-78
2022/07/27 02:03:58;;;;;;;6.97;2.03;;;;;;;13.09;78.00;101922.13;4991695;28;20030;-78
2022/07/27 02:06:24;;;;;;;7.45;2.13;;;;;;;13.09;78.28;101922.13;4986481;28;20455;-76
2022/07/27 02:08:49;;;;;;;5.22;2.05;;;;;;;13.00;78.39;101928.00;4986842;28;20097;-77
2022/07/27 02:13:58;;;;;;;6.40;2.10;;;;;;;13.12;78.20;101932.31;4995337;28;20135;-77
2022/07/27 02:16:23;;;;;;;8.15;2.40;;;;;;;13.04;78.54;101924.25;5004325;28;20502;-76
2022/07/27 02:18:49;;;;;;;6.22;2.30;;;;;;;13.06;78.68;101927.56;4995397;28;20022;-76
2022/07/27 02:21:14;;;;;;;6.90;2.10;;;;;;;12.99;79.17;101940.19;4985051;28;20031;-77
2022/07/27 02:23:41;;;;;;;7.75;2.15;;;;;;;13.09;78.93;101932.53;4986474;28;20033;-77
2022/07/27 02:26:07;;;;;;;7.10;2.20;;;;;;;12.96;79.50;101934.38;4985906;28;20511;-77
2022/07/27 02:28:34;;;;;;;6.82;2.35;;;;;;;13.02;79.35;101931.34;4985018;28;20732;-76
2022/07/27 02:31:00;;;;;;;7.80;2.42;;;;;;;13.10;79.28;101929.00;4997640;28;20049;-77
2022/07/27 02:33:26;;;;;;;5.93;2.30;;;;;;;13.07;79.47;101918.78;4984871;28;20105;-76
2022/07/27 02:35:51;;;;;;;5.88;2.38;;;;;;;12.91;80.38;101929.53;4985586;28;20530;-76
2022/07/27 02:38:16;;;;;;;7.13;2.50;;;;;;;12.96;79.65;101923.97;4994102;28;20049;-76
2022/07/27 02:40:42;;;;;;;8.55;2.92;;;;;;;12.94;79.78;101918.03;4997768;28;20033;-76
2022/07/27 02:43:07;;;;;;;7.85;2.60;;;;;;;13.06;79.59;101932.75;4985196;28;20078;-76
2022/07/27 02:45:33;;;;;;;6.10;2.50;;;;;;;12.91;80.09;101923.50;4985547;28;20464;-76
2022/07/27 02:47:58;;;;;;;4.95;2.80;;;;;;;12.94;80.22;101918.03;4986157;28;20394;-76
2022/07/27 02:50:23;;;;;;;7.15;2.97;;;;;;;13.00;80.19;101913.22;4986712;28;20026;-77
2022/07/27 02:52:49;;;;;;;8.68;3.40;;;;;;;12.84;80.67;101917.06;4986480;28;20025;-76
2022/07/27 02:55:14;;;;;;;6.93;3.38;;;;;;;12.98;80.31;101909.06;4991198;28;20398;-76
2022/07/27 02:57:39;;;;;;;8.25;3.63;;;;;;;13.02;80.08;101913.13;4989950;28;20032;-76
2022/07/27 03:00:08;;;;;;;8.93;3.65;;;;;;;12.99;80.02;101910.72;4990993;28;20060;-76
2022/07/27 03:02:33;;;;;;;9.10;4.40;;;;;;;12.91;80.55;101902.66;4983606;28;20461;-76
2022/07/27 03:04:59;;;;;;;10.00;4.43;;;;;;;12.90;80.02;101903.59;4984277;28;20038;-76
2022/07/27 03:07:24;;;;;;;8.55;4.18;;;;;;;12.82;80.95;101908.53;4988034;28;20018;-76
2022/07/27 03:09:49;;;;;;;9.43;4.28;;;;;;;12.89;80.32;101913.19;4995593;28;20030;-76
2022/07/27 03:12:15;;;;;;;7.95;4.30;;;;;;;12.94;80.63;101912.84;4990010;28;20471;-76
2022/07/27 03:14:40;;;;;;;8.68;4.05;;;;;;;12.92;80.21;101905.16;4990153;28;20062;-76
2022/07/27 03:17:05;;;;;;;11.32;4.22;;;;;;;12.94;80.89;101910.25;4990532;28;20019;-76
2022/07/27 03:19:31;;;;;;;9.48;4.03;;;;;;;12.88;80.89;101910.69;4987352;28;20442;-76
2022/07/27 03:21:56;;;;;;;7.55;3.85;;;;;;;12.96;80.11;101910.94;4990116;28;20113;-76
2022/07/27 03:24:22;;;;;;;8.23;4.00;;;;;;;12.91;80.72;101910.47;4989174;28;20061;-78
2022/07/27 03:26:47;;;;;;;7.22;4.15;;;;;;;12.86;80.94;101916.03;4992569;28;20106;-76
2022/07/27 03:29:13;;;;;;;8.15;3.88;;;;;;;12.85;80.94;101909.16;4989884;28;20034;-78
2022/07/27 03:31:38;;;;;;;8.02;4.00;;;;;;;12.90;80.01;101908.78;4990666;28;20494;-76
2022/07/27 03:34:04;;;;;;;8.80;4.10;;;;;;;12.90;80.32;101917.47;4989865;28;20026;-76
2022/07/27 03:36:29;;;;;;;8.80;4.13;;;;;;;12.87;80.83;101916.84;4988817;28;20648;-76
2022/07/27 03:38:54;;;;;;;7.07;3.80;;;;;;;12.87;81.03;101924.66;4988620;28;20582;-76
2022/07/27 03:41:20;;;;;;;8.25;3.97;;;;;;;12.82;80.64;101917.19;4982618;28;20038;-76
2022/07/27 03:43:45;;;;;;;7.88;4.30;;;;;;;12.72;81.22;101921.41;4989719;28;20026;-76
2022/07/27 03:46:11;;;;;;;8.15;4.18;;;;;;;12.68;81.02;101917.38;4988994;28;20122;-76
2022/07/27 03:48:38;;;;;;;9.98;4.10;;;;;;;12.69;80.91;101919.03;4988311;28;20030;-76
2022/07/27 03:51:04;;;;;;;8.55;3.70;;;;;;;12.53;81.54;101924.50;4994321;28;20382;-76
2022/07/27 03:53:29;;;;;;;9.43;3.75;;;;;;;12.50;81.62;101919.50;4986593;28;20018;-76
2022/07/27 03:55:54;;;;;;;8.35;4.53;;;;;;;12.57;81.23;101915.56;4990118;28;20033;-76
2022/07/27 03:58:22;;;;;;;7.47;3.80;;;;;;;12.61;81.38;101932.59;4996903;28;20093;-76
2022/07/27 04:00:47;;;;;;;7.22;4.03;;;;;;;12.48;81.84;101922.25;4989753;28;20049;-76
2022/07/27 04:03:13;;;;;;;6.82;3.90;;;;;;;12.60;81.26;101925.72;4992217;28;20069;-76
2022/07/27 04:05:38;;;;;;;8.18;4.60;;;;;;;12.55;81.56;101922.63;4990559;28;20478;-76
2022/07/27 04:08:04;;;;;;;9.15;4.47;;;;;;;12.49;81.85;101923.06;4989826;28;20371;-76
2022/07/27 04:10:29;;;;;;;7.75;4.38;;;;;;;12.52;81.48;101929.84;4985200;28;20037;-76
2022/07/27 04:12:54;;;;;;;8.05;4.70;;;;;;;12.51;81.84;101931.63;4987428;28;20462;-76
2022/07/27 04:15:21;;;;;;;7.97;4.70;;;;;;;12.43;81.72;101928.72;4996930;28;20034;-76
2022/07/27 04:17:46;;;;;;;8.50;4.38;;;;;;;12.48;81.59;101937.03;4984766;28;20030;-76
2022/07/27 04:20:12;;;;;;;9.18;4.63;;;;;;;12.48;81.54;101937.03;4987676;28;20092;-76
2022/07/27 04:22:38;;;;;;;8.05;4.95;;;;;;;12.41;82.02;101933.22;4986552;28;20045;-77
2022/07/27 04:25:04;;;;;;;9.07;5.10;;;;;;;12.43;82.37;101933.91;4987365;28;20021;-77
2022/07/27 04:27:29;;;;;;;8.77;5.18;;;;;;;12.34;82.54;101940.63;4986424;28;20066;-76
2022/07/27 04:29:54;;;;;;;11.27;5.40;;;;;;;12.50;82.91;101940.34;4988767;28;20161;-77
2022/07/27 04:32:20;;;;;;;10.85;5.13;;;;;;;12.38;83.00;101936.00;4987131;28;20065;-76
2022/07/27 04:34:45;;;;;;;10.38;5.47;;;;;;;12.31;83.33;101934.81;4987102;28;20449;-76
2022/07/27 04:37:11;;;;;;;9.85;5.28;;;;;;;12.52;82.45;101943.69;4987002;28;20027;-77
2022/07/27 04:39:36;;;;;;;9.43;5.10;;;;;;;12.55;82.96;101948.66;4985260;28;20080;-77
2022/07/27 04:42:01;;;;;;;9.75;5.40;;;;;;;12.56;82.73;101932.13;4987219;28;20364;-77
2022/07/27 04:44:27;;;;;;;9.38;5.43;;;;;;;12.54;81.95;101947.00;4986310;28;20030;-76
2022/07/27 04:46:52;;;;;;;8.82;5.15;;;;;;;12.59;82.58;101934.47;4995038;28;20462;-76
2022/07/27 04:49:17;;;;;;;7.80;4.75;;;;;;;12.63;82.55;101948.94;4988122;28;20066;-76
2022/07/27 04:51:43;;;;;;;8.73;4.85;;;;;;;12.50;82.69;101929.94;4994269;28;20105;-77
2022/07/27 04:54:10;;;;;;;8.57;5.35;;;;;;;12.60;83.14;101946.53;4984952;28;20053;-76
2022/07/27 04:56:35;;;;;;;8.60;4.68;;;;;;;12.65;82.23;101947.03;4988354;28;20026;-76
2022/07/27 04:59:00;;;;;;;8.77;5.22;;;;;;;12.63;83.32;101940.31;4988898;28;20037;-77
2022/07/27 05:01:26;;;;;;;10.32;4.88;;;;;;;12.61;83.53;101937.78;4985817;28;20022;-76
2022/07/27 05:03:51;;;;;;;9.65;4.30;;;;;;;12.67;82.69;101947.78;4988687;28;20038;-77
2022/07/27 05:06:17;;;;;;;7.50;3.92;;;;;;;12.71;82.04;101938.78;4987534;28;20430;-76
2022/07/27 05:08:42;;;;;;;8.90;3.85;;;;;;;12.74;82.55;101943.78;4986414;28;20084;-76
2022/07/27 05:11:08;;;;;;;7.55;3.90;;;;;;;12.75;82.77;101950.66;4991527;28;20108;-76
2022/07/27 05:13:36;;;;;;;9.30;3.55;;;;;;;12.79;82.39;101958.22;4987270;28;20038;-76
2022/07/27 05:16:02;;;;;;;9.40;3.33;;;;;;;12.90;82.47;101950.47;4986462;28;20033;-76
2022/07/27 05:18:27;;;;;;;6.25;3.30;;;;;;;12.91;81.62;101958.19;4991446;28;20026;-76
2022/07/27 05:20:52;;;;;;;5.72;2.83;;;;;;;12.90;81.56;101958.28;4999228;28;20530;-76
2022/07/27 05:23:18;;;;;;;7.28;3.10;;;;;;;12.92;81.70;101967.66;4987259;28;20077;-78
2022/07/27 05:25:43;;;;;;;6.75;2.72;;;;;;;12.93;81.36;101968.47;4987579;28;20050;-76
2022/07/27 05:28:11;;;;;;;6.32;2.63;;;;;;;12.95;80.92;101966.56;4991984;28;20034;-76
2022/07/27 05:30:36;;;;;;;7.60;2.90;;;;;;;13.06;80.33;101958.81;4991469;28;20026;-76
2022/07/27 05:33:02;;;;;;;6.53;2.50;;;;;;;13.10;80.42;101965.47;4988200;28;20026;-75
2022/07/27 05:35:27;;;;;;;6.70;2.35;;;;;;;13.12;80.45;101968.78;4985048;28;20463;-77
2022/07/27 05:37:52;;;;;;;8.50;3.08;;;;;;;13.18;80.21;101972.69;4987442;28;20471;-75
2022/07/27 05:40:18;;;;;;;7.82;2.83;;;;;;;13.20;80.42;101976.03;4987283;28;20057;-76
2022/07/27 05:42:43;;;;;;;7.25;2.53;;;;;;;13.22;79.87;101980.22;4978028;28;20026;-76
2022/07/27 05:45:10;;;;;;;6.13;2.60;;;;;;;13.28;79.65;101984.97;4987800;28;20666;-77
2022/07/27 05:47:36;;;;;;;7.65;2.97;;;;;;;13.27;79.82;101983.31;4986798;28;20033;-76
2022/07/27 05:50:02;;;;;;;7.50;3.17;;;;;;;13.34;80.41;101982.84;4986877;28;20026;-76
2022/07/27 05:52:27;;;;;;;8.55;3.22;;;;;;;13.38;79.69;101979.06;4973520;28;20030;-76
2022/07/27 05:54:52;;;;;;;8.40;3.22;;;;;;;13.50;80.49;101988.56;4988236;28;20463;-76
2022/07/27 05:57:18;;;;;;;7.90;3.72;;;;;;;13.44;80.73;101989.03;4987176;28;20065;-76
2022/07/27 05:59:43;;;;;;;7.80;3.80;;;;;;;13.54;80.98;101997.81;4986704;28;20101;-76
2022/07/27 06:02:09;;;;;;;8.70;3.70;;;;;;;13.56;80.51;101988.09;4985920;28;20065;-76
2022/07/27 06:04:35;;;;;;;6.43;3.30;;;;;;;13.64;80.71;101996.16;4984765;28;20037;-75
2022/07/27 06:09:44;;;;;;;7.43;4.03;;;;;;;13.75;80.74;102001.38;4997561;28;20077;-76
2022/07/27 06:12:11;;;;;;;9.40;4.20;;;;;;;13.77;81.08;101999.53;4986595;28;20049;-76
2022/07/27 06:14:37;;;;;;;7.63;4.15;;;;;;;13.86;81.34;101999.75;4986412;28;20056;-76
2022/07/27 06:17:02;;;;;;;8.18;4.05;;;;;;;13.95;80.59;102009.50;4979001;28;20026;-76
2022/07/27 06:19:28;;;;;;;7.32;3.70;;;;;;;13.94;80.32;102007.84;4985941;28;20474;-76
2022/07/27 06:21:53;;;;;;;8.90;3.92;;;;;;;13.97;80.12;102010.19;4986468;28;20034;-76
2022/07/27 06:24:18;;;;;;;7.82;3.63;;;;;;;14.02;80.69;102010.66;4987067;28;20034;-78
2022/07/27 06:26:44;;;;;;;8.73;3.25;;;;;;;14.10;79.14;102003.06;4987427;28;20125;-77
2022/07/27 06:29:09;;;;;;;6.97;3.60;;;;;;;14.19;79.07;102012.78;5001089;28;20026;-78
2022/07/27 06:31:35;;;;;;;8.50;3.58;;;;;;;14.27;79.14;102009.56;4997530;28;20026;-78
2022/07/27 06:34:00;;;;;;;6.57;2.83;;;;;;;14.33;79.01;102009.09;4992790;28;20033;-77
2022/07/27 06:36:26;;;;;;;7.43;2.58;;;;;;;14.33;76.92;102004.69;4988451;28;20458;-77
2022/07/27 06:38:51;;;;;;;5.88;2.47;;;;;;;14.34;76.70;102010.78;4985672;28;20486;-77
2022/07/27 06:41:17;;;;;;;5.70;2.30;;;;;;;14.32;77.11;102010.88;4986708;28;20056;-77
2022/07/27 06:43:42;;;;;;;5.05;2.00;;;;;;;14.43;77.47;102014.44;4984732;28;20454;-76
2022/07/27 06:46:11;;;;;;;4.93;2.13;;;;;;;14.46;77.68;102001.16;4986520;28;20065;-77
2022/07/27 06:48:37;;;;;;;5.22;2.03;;;;;;;14.57;77.09;101995.94;4985316;28;20018;-77
2022/07/27 06:51:03;;;;;;;6.15;2.10;;;;;;;14.65;75.33;102003.97;4989107;28;20117;-77
2022/07/27 06:53:28;;;;;;;6.00;2.15;;;;;;;14.76;74.77;102006.56;4985087;28;20148;-77
2022/07/27 06:55:53;;;;;;;8.45;2.30;;;;;;;14.81;74.55;102004.41;4986670;28;20045;-76
2022/07/27 06:58:19;;;;;;;5.80;2.05;;;;;;;14.90;74.03;102012.44;4986279;28;20110;-77
2022/07/27 07:00:44;;;;;;;6.82;2.50;;;;;;;14.99;73.22;102022.16;4986129;28;20122;-78
2022/07/27 07:03:10;;;;;;;6.22;2.20;;;;;;;14.92;72.44;102007.94;4985363;28;20394;-78
2022/07/27 07:05:44;;;;;;;6.28;2.25;;;;;;;14.91;73.19;102017.56;4987201;28;20073;-77
2022/07/27 07:08:10;;;;;;;6.25;2.40;;;;;;;14.95;72.51;102018.94;4992694;28;20106;-78
2022/07/27 07:10:37;;;;;;;6.78;2.47;;;;;;;15.01;72.06;102021.06;4983084;28;20108;-77
2022/07/27 07:13:05;;;;;;;8.13;2.25;;;;;;;15.05;71.05;102021.66;4984962;28;20538;-76
2022/07/27 07:15:31;;;;;;;6.30;2.35;;;;;;;15.10;71.75;102020.31;4985237;28;20026;-77
2022/07/27 07:17:56;;;;;;;6.50;2.30;;;;;;;15.22;71.72;102018.50;4985117;28;20034;-77
2022/07/27 07:20:22;;;;;;;7.15;2.00;;;;;;;15.28;71.60;102023.22;4980082;28;20034;-77
2022/07/27 07:22:47;;;;;;;6.00;2.10;;;;;;;15.35;70.75;102029.59;4985611;28;20033;-77
2022/07/27 07:25:13;;;;;;;7.25;2.20;;;;;;;15.27;70.10;102016.34;4986435;28;20053;-77
2022/07/27 07:27:38;;;;;;;5.68;1.88;;;;;;;15.38;69.75;102025.91;4996187;28;20046;-77
2022/07/27 07:30:04;;;;;;;4.05;1.70;;;;;;;15.41;69.75;102031.69;4988031;28;20026;-78
2022/07/27 07:32:30;;;;;;;7.05;2.30;;;;;;;15.53;68.49;102032.44;4985823;28;20105;-77
2022/07/27 07:34:55;;;;;;;4.38;1.60;;;;;;;15.57;69.23;102027.81;4985742;28;20466;-77
2022/07/27 07:37:21;;;;;;;5.18;1.75;;;;;;;15.61;67.80;102029.22;4987480;28;20740;-77
2022/07/27 07:39:46;;;;;;;8.80;1.88;;;;;;;15.64;68.77;102027.19;4988569;28;20033;-77
2022/07/27 07:42:12;;;;;;;6.05;1.95;;;;;;;15.71;68.24;102030.13;4987279;28;20031;-77
2022/07/27 07:44:38;;;;;;;6.03;1.95;;;;;;;15.74;70.89;102029.88;4990630;28;20037;-77
2022/07/27 07:47:03;;;;;;;4.80;1.98;;;;;;;15.84;68.58;102035.16;4997348;28;20579;-77
2022/07/27 07:49:29;;;;;;;5.65;1.75;;;;;;;15.68;66.72;102035.63;4987872;28;20563;-77
2022/07/27 07:51:54;;;;;;;5.63;1.70;;;;;;;15.86;67.34;102039.28;4981086;28;20034;-76
2022/07/27 07:54:19;;;;;;;5.80;2.10;;;;;;;15.90;67.47;102039.88;4989326;28;20105;-77
2022/07/27 07:56:45;;;;;;;4.10;1.63;;;;;;;15.86;67.08;102034.06;4989875;28;20419;-77
2022/07/27 07:59:10;;;;;;;4.03;1.60;;;;;;;15.97;67.32;102048.03;4985196;28;20030;-77
2022/07/27 08:01:35;;;;;;;6.03;1.42;;;;;;;15.92;66.33;102044.00;4987887;28;20026;-78
2022/07/27 08:04:01;;;;;;;4.40;1.40;;;;;;;16.00;66.15;102055.59;4987473;28;20049;-77
2022/07/27 08:06:27;;;;;;;5.50;1.50;;;;;;;15.90;64.42;102051.16;4984755;28;20057;-77
2022/07/27 08:08:52;;;;;;;5.97;2.10;;;;;;;15.93;65.49;102045.66;4988933;28;20014;-77
2022/07/27 08:11:18;;;;;;;5.38;2.00;;;;;;;16.13;65.52;102051.00;4986168;28;20421;-77
2022/07/27 08:13:43;;;;;;;6.32;1.88;;;;;;;16.19;65.85;102050.47;4979360;28;20085;-78
2022/07/27 08:16:09;;;;;;;5.07;1.67;;;;;;;16.29;66.48;102056.56;4988639;28;20034;-78
2022/07/27 08:18:34;;;;;;;7.03;1.80;;;;;;;16.22;64.35;102039.72;4988431;28;20039;-78
2022/07/27 08:20:59;;;;;;;6.32;1.55;;;;;;;16.32;63.37;102056.28;4989880;28;20060;-78
2022/07/27 08:23:28;;;;;;;3.85;1.17;;;;;;;16.53;64.64;102064.09;4988296;28;20053;-78
2022/07/27 08:25:53;;;;;;;6.22;1.40;;;;;;;16.49;64.54;102057.44;4989174;28;20097;-79
2022/07/27 08:28:19;;;;;;;5.28;1.50;;;;;;;16.71;63.00;102056.44;4988011;28;20424;-78
2022/07/27 08:30:45;;;;;;;6.07;1.42;;;;;;;16.66;61.68;102058.59;4988148;28;20113;-78
2022/07/27 08:33:10;;;;;;;6.18;1.65;;;;;;;16.86;62.26;102049.84;4997706;28;20052;-78
2022/07/27 08:35:36;;;;;;;4.78;1.20;;;;;;;16.83;61.35;102052.72;4988772;28;20355;-78
2022/07/27 08:38:04;;;;;;;6.07;1.40;;;;;;;16.93;62.70;102061.44;4988236;28;20524;-78
2022/07/27 08:40:30;;;;;;;5.22;1.50;;;;;;;16.84;60.48;102067.47;4988446;28;20026;-78
2022/07/27 08:42:55;;;;;;;7.10;1.60;;;;;;;16.95;61.42;102059.50;4988680;28;20374;-78
2022/07/27 08:45:20;;;;;;;29.38;3.13;;;;;;;17.01;62.13;102062.53;4984262;28;20537;-78
2022/07/27 08:47:46;;;;;;;4.15;1.10;;;;;;;16.89;61.03;102064.47;4990119;28;20034;-77
2022/07/27 08:50:22;;;;;;;3.50;1.10;;;;;;;16.79;59.49;102063.63;4989894;28;20036;-78
2022/07/27 08:52:49;;;;;;;5.18;1.40;;;;;;;16.77;58.56;102061.13;4983214;28;20506;-78
2022/07/27 08:55:15;;;;;;;8.95;1.50;;;;;;;16.74;57.64;102058.78;4987989;28;20030;-78
2022/07/27 08:57:40;;;;;;;5.07;1.50;;;;;;;16.78;57.78;102054.94;4995067;28;20030;-78
2022/07/27 09:00:06;;;;;;;2.50;1.13;;;;;;;17.09;58.52;102057.44;4986699;28;20026;-78
2022/07/27 09:02:32;;;;;;;4.50;1.30;;;;;;;17.08;57.75;102042.69;4982263;28;20464;-78
2022/07/27 09:04:57;;;;;;;5.70;1.38;;;;;;;17.21;58.73;102022.28;4987772;28;20117;-79
2022/07/27 09:07:28;;;;;;;5.40;1.35;;;;;;;17.37;59.50;102043.47;4987538;28;20022;-78
2022/07/27 09:09:54;;;;;;;4.90;1.30;;;;;;;17.36;56.08;102047.06;4994472;28;20038;-78
2022/07/27 09:12:26;;;;;;;4.82;1.23;;;;;;;17.36;56.59;102047.06;4991632;28;20034;-78
2022/07/27 09:15:07;;;;;;;4.03;1.13;;;;;;;17.66;59.01;102043.47;5001057;28;20462;-78
2022/07/27 09:17:33;;;;;;;11.27;1.40;;;;;;;17.75;57.76;102049.66;4988078;28;20030;-77
2022/07/27 09:20:04;;;;;;;12.63;1.65;;;;;;;17.81;55.56;102046.47;4984594;28;20029;-78
2022/07/27 09:22:45;;;;;;;6.10;1.33;;;;;;;18.07;58.14;102051.09;4987794;28;20031;-78
2022/07/27 09:25:16;;;;;;;4.40;1.38;;;;;;;18.24;56.45;102051.16;4987895;28;20446;-78
2022/07/27 09:27:44;;;;;;;6.28;1.70;;;;;;;18.35;57.20;102051.91;4987297;28;20054;-78
2022/07/27 09:30:12;;;;;;;3.78;1.30;;;;;;;18.33;55.69;102052.06;4987858;28;20026;-78
2022/07/27 09:32:38;;;;;;;4.82;1.30;;;;;;;18.22;52.78;102047.84;4987135;28;20105;-85
2022/07/27 09:35:15;;;;;;;3.25;1.15;;;;;;;18.27;54.82;102050.03;4998723;28;20053;-78
2022/07/27 09:37:40;;;;;;;4.05;1.25;;;;;;;18.50;54.74;102048.66;4986116;28;20026;-79
2022/07/27 09:40:24;;;;;;;3.58;1.20;;;;;;;18.57;55.94;102044.47;4986676;28;20028;-78
2022/07/27 09:43:15;;;;;;;4.43;1.33;;;;;;;18.56;54.58;102032.31;4982323;28;20081;-78
2022/07/27 09:45:42;;;;;;;4.38;1.30;;;;;;;18.52;53.46;102035.38;4978937;28;20081;-79
2022/07/27 09:48:12;;;;;;;5.03;1.50;;;;;;;18.52;53.15;102041.47;4987263;28;20026;-79
2022/07/27 09:50:41;;;;;;;4.00;1.58;;;;;;;18.77;54.11;102041.75;4987335;28;20064;-80
2022/07/27 09:53:20;;;;;;;5.20;1.60;;;;;;;18.97;54.39;102045.06;4987101;28;20033;-79
2022/07/27 09:55:56;;;;;;;5.68;1.58;;;;;;;18.78;51.25;102046.88;4986653;28;20030;-80
2022/07/27 09:58:40;;;;;;;3.67;1.30;;;;;;;18.93;53.10;102041.94;4987217;28;20489;-79
2022/07/27 10:01:07;;;;;;;4.25;1.45;;;;;;;19.01;55.06;102052.50;4987291;28;20039;-79
2022/07/27 10:03:32;;;;;;;4.88;1.52;;;;;;;18.80;51.90;102044.06;4983944;28;20034;-79
2022/07/27 10:05:58;;;;;;;5.25;1.45;;;;;;;18.82;52.49;102047.41;4980373;28;20374;-79
2022/07/27 10:08:24;;;;;;;4.30;1.67;;;;;;;18.74;52.78;102063.06;4986860;28;20114;-79
2022/07/27 10:10:50;;;;;;;5.35;1.50;;;;;;;18.76;53.66;102058.50;4981595;28;20483;-79
2022/07/27 10:13:15;;;;;;;5.40;1.60;;;;;;;18.60;53.65;102045.16;4984138;28;20457;-79
2022/07/27 10:15:41;;;;;;;4.60;1.50;;;;;;;18.50;53.88;102040.78;4994838;28;20521;-79
2022/07/27 10:18:29;;;;;;;4.97;1.30;;;;;;;18.38;54.30;102044.59;4984848;28;20022;-79
2022/07/27 10:20:56;;;;;;;;;;;;;;;18.76;55.57;102048.00;4982067;28;20046;-78
2022/07/27 10:23:26;;;;;;;4.70;1.50;;;;;;;18.81;54.50;102037.88;4984984;28;19910;-80
2022/07/27 10:26:11;;;;;;;4.28;1.80;;;;;;;18.80;54.36;102044.06;4986715;28;20034;-80
2022/07/27 10:28:52;;;;;;;5.57;1.85;;;;;;;18.66;54.45;102053.28;4986683;28;20050;-80
2022/07/27 10:31:21;;;;;;;8.00;1.77;;;;;;;18.44;54.61;102049.25;4986399;28;20038;-80
2022/07/27 10:33:47;;;;;;;;;;;;;;;18.94;55.55;102051.47;4985350;28;20352;-79
2022/07/27 10:36:29;;;;;;;7.65;2.10;;;;;;;18.99;54.07;102043.13;4982161;28;19961;-79
2022/07/27 10:38:58;;;;;;;4.68;1.88;;;;;;;19.05;54.58;102045.16;4995167;28;20041;-78
2022/07/27 10:41:31;;;;;;;5.47;1.85;;;;;;;18.62;52.92;102044.03;4998350;28;20030;-79
2022/07/27 10:44:17;;;;;;;7.38;1.90;;;;;;;18.76;54.72;102038.31;4987219;28;20092;-77
2022/07/27 10:46:44;;;;;;;5.47;1.95;;;;;;;18.75;55.15;102041.06;4986078;28;20813;-79
2022/07/27 10:49:20;;;;;;;6.00;2.05;;;;;;;18.58;53.14;102040.88;4985772;28;20030;-78
2022/07/27 10:51:45;;;;;;;4.90;1.70;;;;;;;18.53;53.68;102043.13;4986464;28;20052;-79
2022/07/27 10:54:25;;;;;;;6.72;1.50;;;;;;;18.52;54.68;102030.97;4985577;28;20466;-81
2022/07/27 10:56:55;;;;;;;5.75;1.73;;;;;;;18.70;54.30;102017.88;4986580;28;20019;-82
2022/07/27 10:59:48;;;;;;;5.88;3.40;;;;;;;19.07;55.73;102030.88;4986241;28;20072;-80
2022/07/27 11:02:17;;;;;;;15.02;13.43;;;;;;;18.88;52.17;102028.41;4976171;28;20031;-76
2022/07/27 11:04:52;;;;;;;3.28;1.50;;;;;;;18.99;50.36;102025.53;4986114;28;20513;-76
2022/07/27 11:07:24;;;;;;;4.10;1.50;;;;;;;19.37;52.41;102015.63;4988387;28;20403;-76
2022/07/27 11:09:51;;;;;;;6.78;1.80;;;;;;;19.77;50.86;102016.91;4978792;28;20034;-76
2022/07/27 11:12:17;;;;;;;4.32;1.40;;;;;;;19.71;51.14;102007.00;4985067;28;20084;-76
2022/07/27 11:14:50;;;;;;;5.07;1.70;;;;;;;19.86;50.14;102015.97;4985660;28;20038;-76
2022/07/27 11:17:18;;;;;;;5.32;1.55;;;;;;;20.09;49.60;102003.06;4988594;28;20064;-76
2022/07/27 11:19:44;;;;;;;4.05;1.75;;;;;;;20.10;48.18;102002.91;4991191;28;20121;-76
2022/07/27 11:22:11;;;;;;;5.70;1.60;;;;;;;20.16;47.83;102004.09;4986857;28;20116;-76
2022/07/27 11:24:36;;;;;;;5.25;1.67;;;;;;;20.02;47.51;102000.25;4989670;28;20117;-76
2022/07/27 11:27:03;;;;;;;4.60;1.60;;;;;;;20.14;48.32;101998.97;4993860;28;20074;-76